createdAt,value
2019-04-11T00:05:00.704Z,9.63
2019-04-11T00:10:06.745Z,10.60
2019-04-11T00:15:11.348Z,11.13
2019-04-11T00:20:16.039Z,10.40
2019-04-11T00:25:21.118Z,10.93
2019-04-11T00:30:26.169Z,11.37
2019-04-11T00:35:31.450Z,13.73
2019-04-11T00:40:37.352Z,11.97
2019-04-11T00:45:42.092Z,12.23
2019-04-11T00:50:47.580Z,9.63
2019-04-11T00:55:53.605Z,11.00
2019-04-11T01:00:58.322Z,10.37
2019-04-11T01:06:03.718Z,12.13
2019-04-11T01:11:08.400Z,9.27
2019-04-11T01:16:41.217Z,13.83
2019-04-11T01:21:45.901Z,11.03
2019-04-11T01:26:51.685Z,10.43
2019-04-11T01:32:02.126Z,12.67
2019-04-11T01:37:07.853Z,11.20
2019-04-11T01:42:13.242Z,11.53
2019-04-11T01:47:28.881Z,14.30
2019-04-11T01:52:34.147Z,11.50
2019-04-11T01:57:38.811Z,17.20
2019-04-11T02:02:53.385Z,12.23
2019-04-11T02:07:58.735Z,15.43
2019-04-11T02:13:03.624Z,13.50
2019-04-11T02:18:08.360Z,12.20
2019-04-11T02:23:24.747Z,11.40
2019-04-11T02:28:30.825Z,13.73
2019-04-11T02:33:37.083Z,12.70
2019-04-11T02:38:44.072Z,12.67
2019-04-11T02:43:50.929Z,8.93
2019-04-11T02:48:56.800Z,8.80
2019-04-11T02:54:02.342Z,12.00
2019-04-11T02:59:09.065Z,13.17
2019-04-11T03:04:14.851Z,11.13
2019-04-11T03:09:20.243Z,8.20
2019-04-11T03:14:27.627Z,10.03
2019-04-11T03:19:43.982Z,13.93
2019-04-11T03:24:38.661Z,9.47
2019-04-11T03:29:45.247Z,12.57
2019-04-11T03:35:34.842Z,11.17
2019-04-11T03:40:19.102Z,12.23
2019-04-11T03:45:27.602Z,10.93
2019-04-11T03:50:16.621Z,11.97
2019-04-11T03:55:15.729Z,9.50
2019-04-11T04:00:21.643Z,10.53
2019-04-11T04:05:28.575Z,10.47
2019-04-11T04:10:36.036Z,11.53
2019-04-11T04:16:04.190Z,12.23
2019-04-11T04:21:17.287Z,10.23
2019-04-11T04:26:23.012Z,9.90
2019-04-11T04:31:28.659Z,11.53
2019-04-11T04:36:34.829Z,12.07
2019-04-11T04:41:47.870Z,12.20
2019-04-11T04:47:01.668Z,12.03
2019-04-11T04:51:55.717Z,9.57
2019-04-11T04:57:02.841Z,12.67
2019-04-11T05:02:08.789Z,14.10
2019-04-11T05:07:15.170Z,9.93
2019-04-11T05:12:22.469Z,11.57
2019-04-11T05:17:28.936Z,12.73
2019-04-11T05:22:33.632Z,14.37
2019-04-11T05:27:38.466Z,11.07
2019-04-11T05:32:42.994Z,13.17
2019-04-11T05:37:48.131Z,14.13
2019-04-11T05:42:54.123Z,17.73
2019-04-11T05:48:01.101Z,14.53
2019-04-11T05:53:05.850Z,13.90
2019-04-11T05:58:14.213Z,14.43
2019-04-11T06:03:17.730Z,17.67
2019-04-11T06:08:27.140Z,13.27
2019-04-11T06:13:34.323Z,12.60
2019-04-11T06:18:58.815Z,13.70
2019-04-11T06:24:34.702Z,16.00
2019-04-11T06:29:49.312Z,15.97
2019-04-11T06:35:01.902Z,12.90
2019-04-11T06:40:13.287Z,9.47
2019-04-11T06:45:35.765Z,12.23
2019-04-11T06:51:06.020Z,11.03
2019-04-11T06:56:16.865Z,15.20
2019-04-11T07:01:25.756Z,13.07
2019-04-11T07:06:32.354Z,16.23
2019-04-11T07:11:43.342Z,15.93
2019-04-11T07:17:09.020Z,17.67
2019-04-11T07:22:32.663Z,12.20
2019-04-11T07:27:38.443Z,14.50
2019-04-11T07:32:43.319Z,14.77
2019-04-11T07:37:51.107Z,16.20
2019-04-11T07:43:25.057Z,15.07
2019-04-11T07:48:32.461Z,16.03
2019-04-11T07:53:39.876Z,14.17
2019-04-11T07:58:50.002Z,11.97
2019-04-11T08:04:14.017Z,17.47
2019-04-11T08:09:33.527Z,15.50
2019-04-11T08:15:13.348Z,16.07
2019-04-11T08:20:36.011Z,15.87
2019-04-11T08:26:09.471Z,13.60
2019-04-11T08:31:34.410Z,17.00
2019-04-11T08:36:56.946Z,17.73
2019-04-11T08:42:21.383Z,13.93
2019-04-11T08:47:41.631Z,13.83
2019-04-11T08:53:02.591Z,12.67
2019-04-11T08:58:12.518Z,13.87
2019-04-11T09:04:03.077Z,14.63
2019-04-11T09:09:33.469Z,17.00
2019-04-11T09:14:51.297Z,13.53
2019-04-11T09:20:25.112Z,26.60
2019-04-11T09:25:50.426Z,14.27
2019-04-11T09:31:14.019Z,15.83
2019-04-11T09:36:55.693Z,10.53
2019-04-11T09:42:23.599Z,15.07
2019-04-11T09:48:09.411Z,16.80
2019-04-11T09:53:03.689Z,7.97
2019-04-11T09:58:23.168Z,14.87
2019-04-11T10:03:29.354Z,12.93
2019-04-11T10:08:51.212Z,12.87
2019-04-11T10:14:05.212Z,17.17
2019-04-11T10:19:17.878Z,16.17
2019-04-11T10:24:48.437Z,16.17
2019-04-11T10:30:11.729Z,16.37
2019-04-11T10:35:34.569Z,15.50
2019-04-11T10:41:04.359Z,17.27
2019-04-11T10:46:22.936Z,13.37
2019-04-11T10:51:42.292Z,15.07
2019-04-11T10:57:05.625Z,13.27
2019-04-11T11:02:25.158Z,14.00
2019-04-11T11:07:32.887Z,21.03
2019-04-11T11:12:57.339Z,12.03
2019-04-11T11:18:43.045Z,15.87
2019-04-11T11:23:49.099Z,13.13
2019-04-11T11:29:15.179Z,15.30
2019-04-11T11:34:25.395Z,14.57
2019-04-11T11:39:39.465Z,12.60
2019-04-11T11:44:51.445Z,13.53
2019-04-11T11:50:00.536Z,17.17
2019-04-11T11:55:04.039Z,13.03
2019-04-11T12:00:13.654Z,11.83
2019-04-11T12:05:26.134Z,13.33
2019-04-11T12:10:54.613Z,14.73
2019-04-11T12:16:21.346Z,13.10
2019-04-11T12:21:29.729Z,17.30
2019-04-11T12:26:39.933Z,15.00
2019-04-11T12:31:57.703Z,12.37
2019-04-11T12:37:04.280Z,14.40
2019-04-11T12:42:22.521Z,15.20
2019-04-11T12:47:31.613Z,11.77
2019-04-11T12:58:10.147Z,15.53
2019-04-11T13:03:33.558Z,19.93
2019-04-11T13:08:55.585Z,12.53
2019-04-11T13:14:12.244Z,14.67
2019-04-11T13:19:34.776Z,16.93
2019-04-11T13:24:59.642Z,11.50
2019-04-11T13:30:27.089Z,15.30
2019-04-11T13:35:54.889Z,11.97
2019-04-11T13:41:20.251Z,14.23
2019-04-11T13:46:47.676Z,16.67
2019-04-11T13:52:12.309Z,13.50
2019-04-11T13:57:35.629Z,13.50
2019-04-11T14:02:57.630Z,14.37
2019-04-11T14:08:02.276Z,14.60
2019-04-11T14:13:07.947Z,14.40
2019-04-11T14:18:28.765Z,12.40
2019-04-11T14:23:52.185Z,14.80
2019-04-11T14:29:31.065Z,16.97
2019-04-11T14:34:48.242Z,16.40
2019-04-11T14:39:56.634Z,16.37
2019-04-11T14:45:05.685Z,12.30
2019-04-11T14:50:08.798Z,14.97
2019-04-11T14:55:14.498Z,13.83
2019-04-11T15:00:24.134Z,12.77
2019-04-11T15:05:36.892Z,16.27
2019-04-11T15:11:09.839Z,17.03
2019-04-11T15:16:51.828Z,14.70
2019-04-11T15:22:14.443Z,14.50
2019-04-11T15:27:39.033Z,12.33
2019-04-11T15:33:20.736Z,14.23
2019-04-11T15:38:53.746Z,12.67
2019-04-11T15:44:24.562Z,17.43
2019-04-11T15:49:46.810Z,15.40
2019-04-11T15:55:22.894Z,17.13
2019-04-11T16:01:04.622Z,10.37
2019-04-11T16:06:38.904Z,13.60
2019-04-11T16:11:58.750Z,15.07
2019-04-11T16:17:28.342Z,12.33
2019-04-11T16:22:55.122Z,12.63
2019-04-11T16:28:21.390Z,11.97
2019-04-11T16:33:45.882Z,10.83
2019-04-11T16:39:09.852Z,10.37
2019-04-11T16:44:24.823Z,14.33
2019-04-11T16:49:27.472Z,12.10
2019-04-11T16:54:32.121Z,11.00
2019-04-11T16:59:36.690Z,10.37
2019-04-11T17:04:42.527Z,13.03
2019-04-11T17:09:47.681Z,11.87
2019-04-11T17:14:53.548Z,10.10
2019-04-11T17:19:58.455Z,10.60
2019-04-11T17:25:04.547Z,15.03
2019-04-11T17:30:09.222Z,9.53
2019-04-11T17:35:15.580Z,11.63
2019-04-11T17:40:20.282Z,12.47
2019-04-11T17:45:26.349Z,11.40
2019-04-11T17:50:32.754Z,9.87
2019-04-11T17:55:37.422Z,9.87
2019-04-11T18:00:44.513Z,10.37
2019-04-11T18:05:49.197Z,12.17
2019-04-11T18:10:55.891Z,11.23
2019-04-11T18:16:01.186Z,9.13
2019-04-11T18:21:07.896Z,17.37
2019-04-11T18:26:14.141Z,12.13
2019-04-11T18:31:19.109Z,8.23
2019-04-11T18:36:25.851Z,8.53
2019-04-11T18:41:30.639Z,12.97
2019-04-11T18:46:37.053Z,9.80
2019-04-11T18:51:47.684Z,9.43
2019-04-11T18:56:53.736Z,13.23
2019-04-11T19:01:59.837Z,8.67
2019-04-11T19:07:07.878Z,10.37
2019-04-11T19:12:15.648Z,6.87
2019-04-11T19:17:20.171Z,8.60
2019-04-11T19:22:37.110Z,7.37
2019-04-11T19:27:31.630Z,8.33
2019-04-11T19:32:36.369Z,9.23
2019-04-11T19:37:42.745Z,9.40
2019-04-11T19:42:49.197Z,8.47
2019-04-11T19:47:55.424Z,8.10
2019-04-11T19:53:02.669Z,10.10
2019-04-11T19:58:07.688Z,10.40
2019-04-11T20:03:12.442Z,8.77
2019-04-11T20:08:18.487Z,9.20
2019-04-11T20:13:23.291Z,9.53
2019-04-11T20:18:27.832Z,10.43
2019-04-11T20:23:32.411Z,8.70
2019-04-11T20:28:37.324Z,7.80
2019-04-11T20:33:41.927Z,10.57
2019-04-11T20:38:47.752Z,7.70
2019-04-11T20:43:55.995Z,8.27
2019-04-11T20:48:59.855Z,7.27
2019-04-11T20:54:06.958Z,10.00
2019-04-11T20:59:12.002Z,8.70
2019-04-11T21:04:16.546Z,9.90
2019-04-11T21:09:23.851Z,8.73
2019-04-11T21:14:28.490Z,7.03
2019-04-11T21:19:33.390Z,7.17
2019-04-11T21:24:37.926Z,8.40
2019-04-11T21:29:43.287Z,9.57
2019-04-11T21:34:47.922Z,8.50
2019-04-11T21:39:54.988Z,6.93
2019-04-11T21:45:00.498Z,8.40
2019-04-11T21:50:09.141Z,8.83
2019-04-11T21:55:15.227Z,6.77
2019-04-11T22:00:29.402Z,8.83
2019-04-11T22:05:36.650Z,10.10
2019-04-11T22:10:41.432Z,8.57
2019-04-11T22:15:46.034Z,8.03
2019-04-11T22:20:50.788Z,6.57
2019-04-11T22:25:55.315Z,9.30
2019-04-11T22:31:01.211Z,8.70
2019-04-11T22:36:05.866Z,7.03
2019-04-11T22:41:11.705Z,6.40
2019-04-11T22:46:20.836Z,5.03
2019-04-11T22:51:24.143Z,6.50
2019-04-11T22:56:28.667Z,7.07
2019-04-11T23:01:33.266Z,6.73
2019-04-11T23:06:38.023Z,8.07
2019-04-11T23:11:45.575Z,6.40
2019-04-11T23:16:50.114Z,6.83
2019-04-11T23:21:55.749Z,8.00
2019-04-11T23:27:00.284Z,7.83
2019-04-11T23:32:05.011Z,7.23
2019-04-11T23:37:09.576Z,5.33
2019-04-11T23:42:19.619Z,6.33
2019-04-11T23:47:23.767Z,6.90
2019-04-11T23:52:30.321Z,9.50
2019-04-11T23:57:34.893Z,7.97
